createdAt,value
2018-04-13T00:00:05.473Z,4.00
2018-04-13T00:01:05.468Z,4.00
2018-04-13T00:02:05.461Z,4.00
2018-04-13T00:03:05.456Z,4.00
2018-04-13T00:04:05.450Z,4.00
2018-04-13T00:05:05.448Z,4.00
2018-04-13T00:06:05.439Z,4.00
2018-04-13T00:07:05.436Z,4.00
2018-04-13T00:08:05.428Z,4.00
2018-04-13T00:09:05.423Z,4.00
2018-04-13T00:10:05.416Z,4.00
2018-04-13T00:11:05.412Z,4.00
2018-04-13T00:12:05.405Z,4.00
2018-04-13T00:13:05.401Z,4.00
2018-04-13T00:14:05.395Z,4.00
2018-04-13T00:15:05.397Z,4.00
2018-04-13T00:16:05.384Z,4.00
2018-04-13T00:17:05.378Z,4.00
2018-04-13T00:18:05.374Z,4.00
2018-04-13T00:19:05.367Z,4.00
2018-04-13T00:20:05.368Z,4.00
2018-04-13T00:21:05.357Z,4.00
2018-04-13T00:22:05.351Z,4.00
2018-04-13T00:23:05.347Z,4.00
2018-04-13T00:24:05.340Z,4.00
2018-04-13T00:25:05.335Z,4.00
2018-04-13T00:26:05.329Z,4.00
2018-04-13T00:27:05.324Z,4.00
2018-04-13T00:28:05.319Z,4.00
2018-04-13T00:29:05.315Z,4.00
2018-04-13T00:30:05.309Z,4.00
2018-04-13T00:31:05.304Z,4.00
2018-04-13T00:32:05.298Z,4.00
2018-04-13T00:33:05.293Z,4.00
2018-04-13T00:34:05.286Z,4.00
2018-04-13T00:35:05.283Z,4.00
2018-04-13T00:36:05.277Z,4.00
2018-04-13T00:37:05.271Z,4.00
2018-04-13T00:38:05.265Z,4.00
2018-04-13T00:39:05.260Z,4.00
2018-04-13T00:40:05.256Z,4.00
2018-04-13T00:41:05.250Z,4.00
2018-04-13T00:42:05.248Z,4.00
2018-04-13T00:43:05.238Z,4.00
2018-04-13T00:44:05.232Z,4.00
2018-04-13T00:45:05.228Z,4.00
2018-04-13T00:46:05.221Z,4.00
2018-04-13T00:47:05.216Z,4.00
2018-04-13T00:48:05.211Z,4.00
2018-04-13T00:49:05.206Z,4.00
2018-04-13T00:50:05.200Z,4.00
2018-04-13T00:51:05.195Z,4.00
2018-04-13T00:52:05.190Z,4.00
2018-04-13T00:53:05.186Z,4.00
2018-04-13T00:54:05.179Z,4.00
2018-04-13T00:55:05.274Z,4.00
2018-04-13T00:56:05.169Z,4.00
2018-04-13T00:57:05.163Z,4.00
2018-04-13T00:58:05.157Z,4.00
2018-04-13T00:59:05.154Z,4.00
2018-04-13T01:00:05.148Z,4.00
2018-04-13T01:01:05.142Z,4.00
2018-04-13T01:02:05.136Z,4.00
2018-04-13T01:03:05.131Z,4.00
2018-04-13T01:04:05.126Z,4.00
2018-04-13T01:05:05.121Z,4.00
2018-04-13T01:06:05.116Z,4.00
2018-04-13T01:07:05.110Z,4.00
2018-04-13T01:08:05.104Z,4.00
2018-04-13T01:09:05.105Z,4.00
2018-04-13T01:10:05.093Z,4.00
2018-04-13T01:11:05.088Z,4.00
2018-04-13T01:12:05.117Z,4.00
2018-04-13T01:13:05.115Z,4.00
2018-04-13T01:14:05.105Z,4.00
2018-04-13T01:15:05.100Z,4.00
2018-04-13T01:16:05.084Z,4.00
2018-04-13T01:17:05.057Z,4.00
2018-04-13T01:18:05.285Z,4.00
2018-04-13T01:19:05.180Z,4.00
2018-04-13T01:20:05.070Z,4.00
2018-04-13T01:21:05.069Z,4.00
2018-04-13T01:22:05.030Z,4.00
2018-04-13T01:23:05.025Z,4.00
2018-04-13T01:24:05.022Z,4.00
2018-04-13T01:25:05.115Z,4.00
2018-04-13T01:26:05.009Z,4.00
2018-04-13T01:27:05.004Z,4.00
2018-04-13T01:28:04.999Z,4.00
2018-04-13T01:29:04.995Z,4.00
2018-04-13T01:30:04.988Z,4.00
2018-04-13T01:31:04.983Z,4.00
2018-04-13T01:32:04.979Z,4.00
2018-04-13T01:33:04.975Z,4.00
2018-04-13T01:34:04.967Z,4.00
2018-04-13T01:35:04.962Z,4.00
2018-04-13T01:36:04.960Z,4.00
2018-04-13T01:37:04.955Z,4.00
2018-04-13T01:38:04.946Z,4.00
2018-04-13T01:39:04.941Z,4.00
2018-04-13T01:40:04.936Z,4.00
2018-04-13T01:41:04.931Z,4.00
2018-04-13T01:42:04.926Z,4.00
2018-04-13T01:43:04.919Z,4.00
2018-04-13T01:44:04.915Z,4.00
2018-04-13T01:45:04.909Z,4.00
2018-04-13T01:46:04.903Z,4.00
2018-04-13T01:47:04.899Z,4.00
2018-04-13T01:48:04.893Z,4.00
2018-04-13T01:49:04.887Z,4.00
2018-04-13T01:50:04.881Z,4.00
2018-04-13T01:51:04.878Z,4.00
2018-04-13T01:52:04.871Z,4.00
2018-04-13T01:53:04.866Z,4.00
2018-04-13T01:54:04.860Z,4.00
2018-04-13T01:55:04.855Z,4.00
2018-04-13T01:56:04.852Z,4.00
2018-04-13T01:57:04.844Z,4.00
2018-04-13T01:58:04.839Z,4.00
2018-04-13T01:59:04.834Z,4.00
2018-04-13T02:00:04.828Z,4.00
2018-04-13T02:01:04.923Z,4.00
2018-04-13T02:02:04.818Z,4.00
2018-04-13T02:03:04.812Z,4.00
2018-04-13T02:04:04.810Z,4.00
2018-04-13T02:05:04.802Z,4.00
2018-04-13T02:06:04.795Z,4.00
2018-04-13T02:07:04.791Z,4.00
2018-04-13T02:08:04.786Z,4.00
2018-04-13T02:09:04.781Z,4.00
2018-04-13T02:10:04.775Z,4.00
2018-04-13T02:11:04.769Z,4.00
2018-04-13T02:12:04.767Z,4.00
2018-04-13T02:13:04.861Z,4.00
2018-04-13T02:14:04.753Z,4.00
2018-04-13T02:15:04.753Z,4.00
2018-04-13T02:16:04.757Z,4.00
2018-04-13T02:17:04.738Z,4.00
2018-04-13T02:18:04.732Z,4.00
2018-04-13T02:19:04.733Z,4.00
2018-04-13T02:20:04.729Z,4.00
2018-04-13T02:21:04.716Z,4.00
2018-04-13T02:22:04.710Z,4.00
2018-04-13T02:23:04.706Z,4.00
2018-04-13T02:24:04.700Z,4.00
2018-04-13T02:25:04.798Z,4.00
2018-04-13T02:26:04.690Z,4.00
2018-04-13T02:27:04.683Z,4.00
2018-04-13T02:28:04.679Z,4.00
2018-04-13T02:29:04.674Z,4.00
2018-04-13T02:30:04.667Z,4.00
2018-04-13T02:31:04.666Z,4.00
2018-04-13T02:32:04.657Z,4.00
2018-04-13T02:33:04.652Z,4.00
2018-04-13T02:34:04.645Z,4.00
2018-04-13T02:35:04.642Z,4.00
2018-04-13T02:36:04.637Z,4.00
2018-04-13T02:37:04.630Z,4.00
2018-04-13T02:38:04.626Z,4.00
2018-04-13T02:39:04.619Z,4.00
2018-04-13T02:40:04.618Z,4.00
2018-04-13T02:41:04.608Z,4.00
2018-04-13T02:42:04.602Z,4.00
2018-04-13T02:43:04.599Z,4.00
2018-04-13T02:44:04.595Z,4.00
2018-04-13T02:45:04.597Z,4.00
2018-04-13T02:46:04.582Z,4.00
2018-04-13T02:47:04.576Z,4.00
2018-04-13T02:48:04.573Z,4.00
2018-04-13T02:49:04.667Z,4.00
2018-04-13T02:50:04.560Z,4.00
2018-04-13T02:51:04.554Z,4.00
2018-04-13T02:52:04.549Z,4.00
2018-04-13T02:53:04.545Z,4.00
2018-04-13T02:54:04.541Z,4.00
2018-04-13T02:55:04.632Z,4.00
2018-04-13T02:56:04.528Z,4.00
2018-04-13T02:57:04.521Z,4.00
2018-04-13T02:58:04.517Z,4.00
2018-04-13T02:59:04.511Z,4.00
2018-04-13T03:00:04.505Z,4.00
2018-04-13T03:01:04.600Z,4.00
2018-04-13T03:02:04.495Z,4.00
2018-04-13T03:03:04.489Z,4.00
2018-04-13T03:04:04.483Z,4.00
2018-04-13T03:05:04.479Z,4.00
2018-04-13T03:06:04.472Z,4.00
2018-04-13T03:07:04.467Z,4.00
2018-04-13T03:08:04.461Z,4.00
2018-04-13T03:09:04.455Z,4.00
2018-04-13T03:10:04.450Z,4.00
2018-04-13T03:11:04.445Z,4.00
2018-04-13T03:12:04.439Z,4.00
2018-04-13T03:13:04.536Z,4.00
2018-04-13T03:14:04.431Z,4.00
2018-04-13T03:15:04.423Z,4.00
2018-04-13T03:16:04.420Z,4.00
2018-04-13T03:17:04.412Z,4.00
2018-04-13T03:18:04.409Z,4.00
2018-04-13T03:19:04.501Z,4.00
2018-04-13T03:20:04.395Z,4.00
2018-04-13T03:21:04.390Z,4.00
2018-04-13T03:22:04.383Z,4.00
2018-04-13T03:23:04.378Z,4.00
2018-04-13T03:24:04.372Z,4.00
2018-04-13T03:25:04.467Z,4.00
2018-04-13T03:26:04.360Z,4.00
2018-04-13T03:27:04.354Z,4.00
2018-04-13T03:28:04.348Z,4.00
2018-04-13T03:29:04.348Z,4.00
2018-04-13T03:30:04.336Z,4.00
2018-04-13T03:31:04.333Z,4.00
2018-04-13T03:32:04.326Z,4.00
2018-04-13T03:33:04.320Z,4.00
2018-04-13T03:34:04.313Z,4.00
2018-04-13T03:35:04.308Z,4.00
2018-04-13T03:36:04.303Z,4.00
2018-04-13T03:37:04.296Z,4.00
2018-04-13T03:38:04.289Z,4.00
2018-04-13T03:39:04.283Z,4.00
2018-04-13T03:40:04.277Z,4.00
2018-04-13T03:41:04.271Z,4.00
2018-04-13T03:42:04.365Z,4.00
2018-04-13T03:43:04.260Z,4.00
2018-04-13T03:44:04.255Z,4.00
2018-04-13T03:45:04.249Z,4.00
2018-04-13T03:46:04.243Z,4.00
2018-04-13T03:47:04.282Z,4.00
2018-04-13T03:48:04.235Z,4.00
2018-04-13T03:49:04.225Z,4.00
2018-04-13T03:50:04.218Z,4.00
2018-04-13T03:51:04.212Z,4.00
2018-04-13T03:52:04.207Z,4.00
2018-04-13T03:53:04.202Z,4.00
2018-04-13T03:54:04.195Z,4.00
2018-04-13T03:55:04.189Z,4.00
2018-04-13T03:56:04.183Z,4.00
2018-04-13T03:57:04.177Z,4.00
2018-04-13T03:58:04.172Z,4.00
2018-04-13T03:59:04.165Z,4.00
2018-04-13T04:00:04.158Z,4.00
2018-04-13T04:01:04.153Z,4.00
2018-04-13T04:02:04.207Z,4.00
2018-04-13T04:03:04.140Z,4.00
2018-04-13T04:04:04.134Z,4.00
2018-04-13T04:05:04.128Z,4.00
2018-04-13T04:06:04.121Z,4.00
2018-04-13T04:07:04.114Z,4.00
2018-04-13T04:08:04.109Z,4.00
2018-04-13T04:09:04.103Z,4.00
2018-04-13T04:10:04.098Z,4.00
2018-04-13T04:11:04.118Z,4.00
2018-04-13T04:12:04.084Z,4.00
2018-04-13T04:13:04.079Z,4.00
2018-04-13T04:14:04.071Z,4.00
2018-04-13T04:15:04.066Z,4.00
2018-04-13T04:16:04.059Z,4.00
2018-04-13T04:17:04.054Z,4.00
2018-04-13T04:18:04.146Z,4.00
2018-04-13T04:19:04.046Z,4.00
2018-04-13T04:20:04.035Z,4.00
2018-04-13T04:21:04.028Z,4.00
2018-04-13T04:22:04.022Z,4.00
2018-04-13T04:23:04.017Z,4.00
2018-04-13T04:24:04.110Z,4.00
2018-04-13T04:25:04.003Z,4.00
2018-04-13T04:26:03.996Z,4.00
2018-04-13T04:27:03.990Z,4.00
2018-04-13T04:28:03.985Z,4.00
2018-04-13T04:29:03.977Z,4.00
2018-04-13T04:30:03.971Z,4.00
2018-04-13T04:31:03.964Z,4.00
2018-04-13T04:32:03.958Z,4.00
2018-04-13T04:33:03.953Z,4.00
2018-04-13T04:34:03.949Z,4.00
2018-04-13T04:35:03.939Z,4.00
2018-04-13T04:36:03.932Z,4.00
2018-04-13T04:37:03.928Z,4.00
2018-04-13T04:38:03.920Z,4.00
2018-04-13T04:39:03.913Z,4.00
2018-04-13T04:40:03.907Z,4.00
2018-04-13T04:41:03.901Z,4.00
2018-04-13T04:42:03.894Z,4.00
2018-04-13T04:43:03.892Z,4.00
2018-04-13T04:44:03.882Z,4.00
2018-04-13T04:45:03.877Z,4.00
2018-04-13T04:46:03.873Z,4.00
2018-04-13T04:47:03.865Z,4.00
2018-04-13T04:48:03.861Z,4.00
2018-04-13T04:49:03.851Z,4.00
2018-04-13T04:50:03.844Z,4.00
2018-04-13T04:51:03.838Z,4.00
2018-04-13T04:52:03.832Z,4.00
2018-04-13T04:53:03.826Z,4.00
2018-04-13T04:54:03.920Z,4.00
2018-04-13T04:55:03.813Z,4.00
2018-04-13T04:56:03.806Z,4.00
2018-04-13T04:57:03.801Z,4.00
2018-04-13T04:58:03.794Z,4.00
2018-04-13T04:59:03.788Z,4.00
2018-04-13T05:00:03.782Z,4.00
2018-04-13T05:01:03.776Z,4.00
2018-04-13T05:02:03.769Z,4.00
2018-04-13T05:03:03.764Z,4.00
2018-04-13T05:04:03.757Z,4.00
2018-04-13T05:05:03.751Z,4.00
2018-04-13T05:06:03.744Z,4.00
2018-04-13T05:07:03.738Z,4.00
2018-04-13T05:08:03.732Z,4.00
2018-04-13T05:09:03.726Z,4.00
2018-04-13T05:10:03.726Z,4.00
2018-04-13T05:11:03.712Z,4.00
2018-04-13T05:12:03.768Z,4.00
2018-04-13T05:13:03.700Z,4.00
2018-04-13T05:14:03.693Z,4.00
2018-04-13T05:15:03.687Z,4.00
2018-04-13T05:16:03.681Z,4.00
2018-04-13T05:17:03.675Z,4.00
2018-04-13T05:18:03.668Z,4.00
2018-04-13T05:19:03.663Z,4.00
2018-04-13T05:20:03.655Z,4.00
2018-04-13T05:21:03.649Z,4.00
2018-04-13T05:22:03.644Z,4.00
2018-04-13T05:23:03.638Z,4.00
2018-04-13T05:24:03.630Z,4.00
2018-04-13T05:25:03.624Z,4.00
2018-04-13T05:26:03.618Z,4.00
2018-04-13T05:27:03.614Z,4.00
2018-04-13T05:28:03.606Z,4.00
2018-04-13T05:29:03.603Z,4.00
2018-04-13T05:30:03.693Z,4.00
2018-04-13T05:31:03.590Z,4.00
2018-04-13T05:32:03.581Z,4.00
2018-04-13T05:33:03.576Z,4.00
2018-04-13T05:34:03.573Z,4.00
2018-04-13T05:35:03.561Z,4.00
2018-04-13T05:36:03.655Z,4.00
2018-04-13T05:37:03.555Z,4.00
2018-04-13T05:38:03.542Z,4.00
2018-04-13T05:39:03.535Z,4.00
2018-04-13T05:40:03.529Z,4.00
2018-04-13T05:41:03.523Z,4.00
2018-04-13T05:42:03.523Z,4.00
2018-04-13T05:43:03.511Z,4.00
2018-04-13T05:44:03.505Z,4.00
2018-04-13T05:45:03.499Z,4.00
2018-04-13T05:46:03.508Z,4.00
2018-04-13T05:47:03.485Z,4.00
2018-04-13T05:48:03.478Z,4.00
2018-04-13T05:49:03.472Z,4.00
2018-04-13T05:50:03.465Z,4.00
2018-04-13T05:51:03.459Z,4.00
2018-04-13T05:52:03.452Z,4.00
2018-04-13T05:53:03.446Z,4.00
2018-04-13T05:54:03.439Z,4.00
2018-04-13T05:55:03.433Z,4.00
2018-04-13T05:56:03.428Z,4.00
2018-04-13T05:57:03.424Z,4.00
2018-04-13T05:58:03.413Z,4.00
2018-04-13T05:59:03.407Z,4.00
2018-04-13T06:00:03.501Z,4.00
2018-04-13T06:01:03.395Z,4.00
2018-04-13T06:02:03.388Z,4.00
2018-04-13T06:03:03.381Z,4.00
2018-04-13T06:04:03.375Z,4.00
2018-04-13T06:05:03.369Z,4.00
2018-04-13T06:06:03.392Z,4.00
2018-04-13T06:07:03.355Z,4.00
2018-04-13T06:08:03.348Z,4.00
2018-04-13T06:09:03.342Z,4.00
2018-04-13T06:10:03.339Z,4.00
2018-04-13T06:11:03.328Z,4.00
2018-04-13T06:12:03.422Z,4.00
2018-04-13T06:13:03.317Z,4.00
2018-04-13T06:14:03.307Z,4.00
2018-04-13T06:15:03.301Z,4.00
2018-04-13T06:16:03.295Z,4.00
2018-04-13T06:17:03.288Z,4.00
2018-04-13T06:18:03.281Z,4.00
2018-04-13T06:19:03.277Z,4.00
2018-04-13T06:20:03.268Z,4.00
2018-04-13T06:21:03.263Z,4.00
2018-04-13T06:22:03.255Z,4.00
2018-04-13T06:23:03.248Z,4.00
2018-04-13T06:24:03.242Z,4.00
2018-04-13T06:25:03.238Z,4.00
2018-04-13T06:26:03.228Z,4.00
2018-04-13T06:27:03.223Z,4.00
2018-04-13T06:28:03.218Z,4.00
2018-04-13T06:29:03.208Z,4.00
2018-04-13T06:30:03.301Z,4.00
2018-04-13T06:31:03.194Z,4.00
2018-04-13T06:32:03.188Z,4.00
2018-04-13T06:33:03.182Z,4.00
2018-04-13T06:34:03.174Z,4.00
2018-04-13T06:35:03.168Z,4.00
2018-04-13T06:36:03.161Z,4.00
2018-04-13T06:37:03.155Z,4.00
2018-04-13T06:38:03.155Z,4.00
2018-04-13T06:39:03.143Z,4.00
2018-04-13T06:40:03.135Z,4.00
2018-04-13T06:41:03.128Z,4.00
2018-04-13T06:42:03.120Z,4.00
2018-04-13T06:43:03.114Z,4.00
2018-04-13T06:44:03.107Z,4.00
2018-04-13T06:45:03.100Z,4.00
2018-04-13T06:46:03.092Z,4.00
2018-04-13T06:47:03.089Z,4.00
2018-04-13T06:48:03.181Z,4.00
2018-04-13T06:49:03.075Z,4.00
2018-04-13T06:50:03.068Z,4.00
2018-04-13T06:51:03.059Z,4.00
2018-04-13T06:52:03.052Z,4.00
2018-04-13T06:53:03.047Z,4.00
2018-04-13T06:54:03.139Z,4.00
2018-04-13T06:55:03.032Z,4.00
2018-04-13T06:56:03.024Z,4.00
2018-04-13T06:57:03.021Z,4.00
2018-04-13T06:58:03.010Z,4.00
2018-04-13T06:59:03.004Z,4.00
2018-04-13T07:00:02.997Z,4.00
2018-04-13T07:01:02.990Z,4.00
2018-04-13T07:02:02.983Z,4.00
2018-04-13T07:03:02.975Z,4.00
2018-04-13T07:04:02.973Z,4.00
2018-04-13T07:05:02.962Z,4.00
2018-04-13T07:06:03.055Z,4.00
2018-04-13T07:07:02.955Z,4.00
2018-04-13T07:08:02.943Z,4.00
2018-04-13T07:09:02.936Z,4.00
2018-04-13T07:10:02.928Z,4.00
2018-04-13T07:11:02.921Z,4.00
2018-04-13T07:12:03.019Z,4.00
2018-04-13T07:13:02.908Z,4.00
2018-04-13T07:14:02.899Z,4.00
2018-04-13T07:15:02.894Z,4.00
2018-04-13T07:16:02.886Z,4.00
2018-04-13T07:17:02.880Z,4.00
2018-04-13T07:18:02.872Z,4.00
2018-04-13T07:19:02.869Z,4.00
2018-04-13T07:20:02.858Z,4.00
2018-04-13T07:21:02.853Z,4.00
2018-04-13T07:22:02.845Z,4.00
2018-04-13T07:23:02.839Z,4.00
2018-04-13T07:24:02.935Z,4.00
2018-04-13T07:25:02.824Z,4.00
2018-04-13T07:26:02.816Z,4.00
2018-04-13T07:27:02.809Z,4.00
2018-04-13T07:28:02.805Z,4.00
2018-04-13T07:29:02.796Z,4.00
2018-04-13T07:30:02.889Z,4.00
2018-04-13T07:31:02.783Z,4.00
2018-04-13T07:32:02.775Z,4.00
2018-04-13T07:33:02.769Z,4.00
2018-04-13T07:34:02.761Z,4.00
2018-04-13T07:35:02.755Z,4.00
2018-04-13T07:36:02.848Z,4.00
2018-04-13T07:37:02.741Z,4.00
2018-04-13T07:38:02.733Z,4.00
2018-04-13T07:39:02.726Z,4.00
2018-04-13T07:40:02.723Z,4.00
2018-04-13T07:41:02.713Z,4.00
2018-04-13T07:42:02.708Z,4.00
2018-04-13T07:43:02.700Z,4.00
2018-04-13T07:44:02.692Z,4.00
2018-04-13T07:45:03.053Z,4.00
2018-04-13T07:46:02.783Z,4.00
2018-04-13T07:47:02.672Z,4.00
2018-04-13T07:48:02.665Z,4.00
2018-04-13T07:49:02.660Z,4.00
2018-04-13T07:50:02.654Z,4.00
2018-04-13T07:51:02.643Z,4.00
2018-04-13T07:52:02.636Z,4.00
2018-04-13T07:53:02.630Z,4.00
2018-04-13T07:54:02.722Z,4.00
2018-04-13T07:55:02.618Z,4.00
2018-04-13T07:56:02.610Z,4.00
2018-04-13T07:57:02.605Z,4.00
2018-04-13T07:58:02.967Z,4.00
2018-04-13T07:59:02.588Z,4.00
2018-04-13T08:00:02.680Z,4.00
2018-04-13T08:01:02.573Z,4.00
2018-04-13T08:02:02.566Z,4.00
2018-04-13T08:03:02.561Z,4.00
2018-04-13T08:04:02.552Z,4.00
2018-04-13T08:05:02.546Z,4.00
2018-04-13T08:06:02.542Z,4.00
2018-04-13T08:07:02.532Z,4.00
2018-04-13T08:08:02.524Z,4.00
2018-04-13T08:09:02.554Z,4.00
2018-04-13T08:10:02.509Z,4.00
2018-04-13T08:11:02.503Z,4.00
2018-04-13T08:12:02.496Z,4.00
2018-04-13T08:13:02.491Z,4.00
2018-04-13T08:14:02.628Z,4.00
2018-04-13T08:15:02.475Z,4.00
2018-04-13T08:16:02.469Z,4.00
2018-04-13T08:17:02.463Z,4.00
2018-04-13T08:18:02.466Z,4.00
2018-04-13T08:19:02.446Z,4.00
2018-04-13T08:20:02.441Z,4.00
2018-04-13T08:21:02.436Z,4.00
2018-04-13T08:22:02.425Z,4.00
2018-04-13T08:23:02.419Z,4.00
2018-04-13T08:24:02.516Z,4.00
2018-04-13T08:25:02.406Z,4.00
2018-04-13T08:26:02.397Z,4.00
2018-04-13T08:27:02.390Z,4.00
2018-04-13T08:28:02.387Z,4.00
2018-04-13T08:29:02.377Z,4.00
2018-04-13T08:30:02.471Z,4.00
2018-04-13T08:31:02.363Z,4.00
2018-04-13T08:32:02.388Z,4.00
2018-04-13T08:33:02.350Z,4.00
2018-04-13T08:34:02.372Z,4.00
2018-04-13T08:35:02.335Z,4.00
2018-04-13T08:36:02.327Z,4.00
2018-04-13T08:37:02.321Z,4.00
2018-04-13T08:38:02.313Z,4.00
2018-04-13T08:39:02.313Z,4.00
2018-04-13T08:40:02.300Z,4.00
2018-04-13T08:41:02.294Z,4.00
2018-04-13T08:42:02.285Z,4.00
2018-04-13T08:43:02.280Z,4.00
2018-04-13T08:44:02.272Z,4.00
2018-04-13T08:45:02.267Z,4.00
2018-04-13T08:46:02.261Z,4.00
2018-04-13T08:47:02.250Z,4.00
2018-04-13T08:48:02.247Z,4.00
2018-04-13T08:49:02.331Z,4.00
2018-04-13T08:50:02.231Z,4.00
2018-04-13T08:51:02.282Z,4.00
2018-04-13T08:52:02.215Z,4.00
2018-04-13T08:53:02.213Z,4.00
2018-04-13T08:54:02.328Z,4.00
2018-04-13T08:55:02.198Z,4.00
2018-04-13T08:56:02.188Z,4.00
2018-04-13T08:57:02.187Z,4.00
2018-04-13T08:58:02.190Z,4.00
2018-04-13T08:59:02.171Z,4.00
2018-04-13T09:00:02.161Z,4.00
2018-04-13T09:01:02.183Z,4.00
2018-04-13T09:02:02.146Z,4.00
2018-04-13T09:03:02.140Z,8.00
2018-04-13T09:04:02.152Z,8.00
2018-04-13T09:05:02.128Z,8.00
2018-04-13T09:06:02.120Z,8.00
2018-04-13T09:07:02.148Z,8.00
2018-04-13T09:08:02.129Z,8.00
2018-04-13T09:09:02.098Z,8.00
2018-04-13T09:10:02.091Z,8.00
2018-04-13T09:11:02.084Z,8.00
2018-04-13T09:12:02.078Z,8.00
2018-04-13T09:13:02.102Z,8.00
2018-04-13T09:14:02.064Z,8.00
2018-04-13T09:15:02.056Z,12.00
2018-04-13T09:16:02.049Z,12.00
2018-04-13T09:17:02.043Z,12.00
2018-04-13T09:18:02.037Z,8.00
2018-04-13T09:19:02.029Z,12.00
2018-04-13T09:20:02.021Z,12.00
2018-04-13T09:21:02.014Z,12.00
2018-04-13T09:22:02.010Z,16.00
2018-04-13T09:23:02.001Z,16.00
2018-04-13T09:24:02.092Z,16.00
2018-04-13T09:25:01.989Z,20.00
2018-04-13T09:26:01.978Z,24.00
2018-04-13T09:27:01.973Z,24.00
2018-04-13T09:28:01.971Z,28.00
2018-04-13T09:29:01.958Z,28.00
2018-04-13T09:30:01.950Z,32.00
2018-04-13T09:31:01.945Z,36.00
2018-04-13T09:32:01.935Z,36.00
2018-04-13T09:33:01.929Z,36.00
2018-04-13T09:34:01.923Z,40.00
2018-04-13T09:35:01.921Z,44.00
2018-04-13T09:36:02.012Z,44.00
2018-04-13T09:37:01.901Z,44.00
2018-04-13T09:38:01.893Z,48.00
2018-04-13T09:39:01.891Z,48.00
2018-04-13T09:40:01.879Z,52.00
2018-04-13T09:41:01.872Z,56.00
2018-04-13T09:42:01.868Z,56.00
2018-04-13T09:43:01.858Z,56.00
2018-04-13T09:44:01.850Z,60.00
2018-04-13T09:45:01.846Z,64.00
2018-04-13T09:46:01.841Z,64.00
2018-04-13T09:47:01.830Z,64.00
2018-04-13T09:48:01.924Z,64.00
2018-04-13T09:49:01.821Z,68.00
2018-04-13T09:50:01.808Z,72.00
2018-04-13T09:51:01.803Z,72.00
2018-04-13T09:52:01.795Z,72.00
2018-04-13T09:53:01.788Z,76.00
2018-04-13T09:54:01.779Z,80.00
2018-04-13T09:55:01.773Z,80.00
2018-04-13T09:56:01.766Z,80.00
2018-04-13T09:57:01.760Z,80.00
2018-04-13T09:58:01.753Z,80.00
2018-04-13T09:59:01.746Z,88.00
2018-04-13T10:00:01.839Z,88.00
2018-04-13T10:01:01.732Z,88.00
2018-04-13T10:02:01.724Z,92.00
2018-04-13T10:03:01.717Z,92.00
2018-04-13T10:04:01.710Z,92.00
2018-04-13T10:05:01.704Z,92.00
2018-04-13T10:06:01.697Z,92.00
2018-04-13T10:07:01.689Z,96.00
2018-04-13T10:08:01.741Z,96.00
2018-04-13T10:09:01.677Z,100.00
2018-04-13T10:10:01.668Z,100.00
2018-04-13T10:11:01.663Z,104.00
2018-04-13T10:12:01.757Z,100.00
2018-04-13T10:13:01.650Z,104.00
2018-04-13T10:14:01.641Z,104.00
2018-04-13T10:15:01.641Z,108.00
2018-04-13T10:16:01.629Z,108.00
2018-04-13T10:17:01.621Z,108.00
2018-04-13T10:18:01.613Z,112.00
2018-04-13T10:19:01.607Z,108.00
2018-04-13T10:20:01.602Z,112.00
2018-04-13T10:21:01.594Z,112.00
2018-04-13T10:22:01.587Z,116.00
2018-04-13T10:23:01.581Z,116.00
2018-04-13T10:24:01.672Z,120.00
2018-04-13T10:25:01.567Z,120.00
2018-04-13T10:26:01.560Z,116.00
2018-04-13T10:27:01.553Z,120.00
2018-04-13T10:28:01.547Z,120.00
2018-04-13T10:29:01.543Z,124.00
2018-04-13T10:30:01.634Z,120.00
2018-04-13T10:31:01.527Z,128.00
2018-04-13T10:32:01.522Z,128.00
2018-04-13T10:33:01.514Z,124.00
2018-04-13T10:34:01.508Z,128.00
2018-04-13T10:35:01.505Z,128.00
2018-04-13T10:36:01.492Z,128.00
2018-04-13T10:37:01.488Z,128.00
2018-04-13T10:38:01.482Z,128.00
2018-04-13T10:39:01.473Z,132.00
2018-04-13T10:40:01.470Z,132.00
2018-04-13T10:41:01.461Z,132.00
2018-04-13T10:42:01.453Z,132.00
2018-04-13T10:43:01.447Z,136.00
2018-04-13T10:44:01.440Z,136.00
2018-04-13T10:45:01.435Z,136.00
2018-04-13T10:46:01.426Z,136.00
2018-04-13T10:47:01.420Z,136.00
2018-04-13T10:48:01.414Z,136.00
2018-04-13T10:49:01.408Z,140.00
2018-04-13T10:50:01.402Z,140.00
2018-04-13T10:51:01.395Z,140.00
2018-04-13T10:52:01.388Z,144.00
2018-04-13T10:53:01.386Z,144.00
2018-04-13T10:54:01.375Z,148.00
2018-04-13T10:55:01.368Z,144.00
2018-04-13T10:56:01.363Z,148.00
2018-04-13T10:57:01.412Z,148.00
2018-04-13T10:58:01.351Z,148.00
2018-04-13T10:59:01.343Z,148.00
2018-04-13T11:00:01.336Z,152.00
2018-04-13T11:01:01.330Z,152.00
2018-04-13T11:02:01.322Z,156.00
2018-04-13T11:03:01.318Z,156.00
2018-04-13T11:04:01.312Z,156.00
2018-04-13T11:05:01.304Z,156.00
2018-04-13T11:06:01.296Z,156.00
2018-04-13T11:07:01.290Z,160.00
2018-04-13T11:08:01.287Z,160.00
2018-04-13T11:09:01.279Z,160.00
2018-04-13T11:10:01.271Z,160.00
2018-04-13T11:11:01.265Z,164.00
2018-04-13T11:12:01.360Z,164.00
2018-04-13T11:13:01.252Z,172.00
2018-04-13T11:14:01.247Z,168.00
2018-04-13T11:15:01.245Z,172.00
2018-04-13T11:16:01.234Z,172.00
2018-04-13T11:17:01.230Z,172.00
2018-04-13T11:18:01.221Z,172.00
2018-04-13T11:19:01.221Z,180.00
2018-04-13T11:20:01.207Z,180.00
2018-04-13T11:21:01.218Z,184.00
2018-04-13T11:22:01.195Z,188.00
2018-04-13T11:23:01.207Z,188.00
2018-04-13T11:24:01.191Z,188.00
2018-04-13T11:25:01.178Z,188.00
2018-04-13T11:26:01.192Z,196.00
2018-04-13T11:27:01.178Z,192.00
2018-04-13T11:28:01.156Z,196.00
2018-04-13T11:29:01.151Z,204.00
2018-04-13T11:30:01.144Z,204.00
2018-04-13T11:31:01.138Z,204.00
2018-04-13T11:32:01.132Z,200.00
2018-04-13T11:33:01.126Z,208.00
2018-04-13T11:34:01.119Z,208.00
2018-04-13T11:35:01.113Z,216.00
2018-04-13T11:36:01.113Z,228.00
2018-04-13T11:37:01.101Z,236.00
2018-04-13T11:38:01.093Z,252.00
2018-04-13T11:39:01.089Z,264.00
2018-04-13T11:40:01.083Z,276.00
2018-04-13T11:41:01.077Z,292.00
2018-04-13T11:42:01.084Z,316.00
2018-04-13T11:43:01.064Z,336.00
2018-04-13T11:44:01.060Z,360.00
2018-04-13T11:45:01.057Z,384.00
2018-04-13T11:46:01.049Z,400.00
2018-04-13T11:47:01.054Z,424.00
2018-04-13T11:48:01.056Z,444.00
2018-04-13T11:49:01.043Z,472.00
2018-04-13T11:50:01.030Z,512.00
2018-04-13T11:51:01.024Z,592.00
2018-04-13T11:52:01.025Z,688.00
2018-04-13T11:53:01.027Z,764.00
2018-04-13T11:54:01.021Z,868.00
2018-04-13T11:55:01.010Z,960.00
2018-04-13T11:56:00.993Z,1044.00
2018-04-13T11:57:00.985Z,1104.00
2018-04-13T11:58:00.978Z,1152.00
2018-04-13T11:59:00.977Z,1196.00
2018-04-13T12:00:01.068Z,1276.00
2018-04-13T12:01:00.964Z,1360.00
2018-04-13T12:02:00.960Z,1456.00
2018-04-13T12:03:00.954Z,1568.00
2018-04-13T12:04:00.948Z,1656.00
2018-04-13T12:05:00.943Z,1696.00
2018-04-13T12:06:00.937Z,1752.00
2018-04-13T12:07:00.933Z,1780.00
2018-04-13T12:08:00.932Z,1808.00
2018-04-13T12:09:00.925Z,1876.00
2018-04-13T12:10:00.919Z,1876.00
2018-04-13T12:11:00.915Z,1900.00
2018-04-13T12:12:00.909Z,1900.00
2018-04-13T12:13:00.908Z,1928.00
2018-04-13T12:14:00.901Z,1956.00
2018-04-13T12:15:00.896Z,1996.00
2018-04-13T12:16:00.894Z,2036.00
2018-04-13T12:17:00.892Z,2056.00
2018-04-13T12:18:00.884Z,2080.00
2018-04-13T12:19:00.887Z,2100.00
2018-04-13T12:20:00.880Z,2088.00
2018-04-13T12:21:00.879Z,2076.00
2018-04-13T12:22:00.891Z,2084.00
2018-04-13T12:23:00.869Z,2052.00
2018-04-13T12:24:00.970Z,2056.00
2018-04-13T12:25:00.865Z,2068.00
2018-04-13T12:26:00.859Z,2096.00
2018-04-13T12:27:01.006Z,2104.00
2018-04-13T12:28:00.852Z,2100.00
2018-04-13T12:29:00.849Z,2192.00
2018-04-13T12:30:00.844Z,2160.00
2018-04-13T12:31:00.842Z,2160.00
2018-04-13T12:32:00.845Z,2184.00
2018-04-13T12:33:00.845Z,2192.00
2018-04-13T12:34:00.835Z,2188.00
2018-04-13T12:35:00.834Z,2192.00
2018-04-13T12:36:00.831Z,2196.00
2018-04-13T12:37:00.827Z,2196.00
2018-04-13T12:38:00.823Z,2200.00
2018-04-13T12:39:00.820Z,2196.00
2018-04-13T12:40:00.816Z,2204.00
2018-04-13T12:41:00.818Z,2212.00
2018-04-13T12:42:00.819Z,2204.00
2018-04-13T12:43:00.813Z,2208.00
2018-04-13T12:44:00.811Z,2200.00
2018-04-13T12:45:00.810Z,2196.00
2018-04-13T12:46:00.810Z,2184.00
2018-04-13T12:47:00.804Z,2180.00
2018-04-13T12:48:00.801Z,2196.00
2018-04-13T12:49:00.839Z,2176.00
2018-04-13T12:50:00.798Z,2172.00
2018-04-13T12:51:00.797Z,2172.00
2018-04-13T12:52:00.793Z,2160.00
2018-04-13T12:53:00.855Z,2160.00
2018-04-13T12:54:00.789Z,2160.00
2018-04-13T12:55:01.012Z,2144.00
2018-04-13T12:56:00.834Z,2144.00
2018-04-13T12:57:00.786Z,2144.00
2018-04-13T12:58:00.782Z,2152.00
2018-04-13T12:59:00.782Z,2148.00
2018-04-13T13:00:00.782Z,2148.00
2018-04-13T13:01:00.780Z,2148.00
2018-04-13T13:02:00.788Z,2136.00